Archiv-/Tagesdaten

--Timestamp---	Temp	Chill	HIndex	Humid	Dewpt	 Wind 	HiWind	WindDir	Rain 	Barom	Solar	 ET  	 UV 
--------------	----	-----	------	-----	-----	------	------	-------	-----	-----	-----	-----	----
20110422 00:00	12.2	12.2	12.2	62	5.2	0	0	-100000	0.0	1011.0	0	0.025	0.0
20110422 00:05	12.1	12.1	12.1	62	5.0	0	0	-100000	0.0	1010.9	0	0.000	0.0
20110422 00:10	11.9	11.9	11.9	62	4.9	0	2	45	0.0	1010.9	0	0.000	0.0
20110422 00:15	11.8	11.8	11.8	62	4.8	0	3	45	0.0	1010.9	0	0.000	0.0
20110422 00:20	11.7	11.7	11.7	62	4.6	0	3	45	0.0	1010.9	0	0.000	0.0
20110422 00:25	11.6	11.6	11.6	63	4.8	2	3	45	0.0	1010.9	0	0.000	0.0
20110422 00:30	11.6	11.6	11.6	63	4.8	0	3	45	0.0	1010.9	0	0.000	0.0
20110422 00:35	11.4	11.4	11.4	63	4.6	0	5	45	0.0	1010.8	0	0.000	0.0
20110422 00:40	11.4	11.4	11.4	63	4.6	0	3	45	0.0	1010.8	0	0.000	0.0
20110422 00:45	11.4	11.4	11.4	63	4.6	0	3	45	0.0	1010.8	0	0.000	0.0
20110422 00:50	11.4	11.4	11.4	63	4.6	0	3	45	0.0	1010.8	0	0.000	0.0
20110422 00:55	11.4	11.4	11.4	63	4.6	0	2	45	0.0	1010.7	0	0.000	0.0
20110422 01:00	11.4	11.4	11.4	64	4.8	0	2	45	0.0	1010.7	0	0.025	0.0
20110422 01:05	11.3	11.3	11.3	64	4.8	0	2	45	0.0	1010.7	0	0.000	0.0
20110422 01:10	11.3	11.3	11.3	64	4.7	0	2	45	0.0	1010.7	0	0.000	0.0
20110422 01:15	11.2	11.2	11.2	64	4.7	0	2	45	0.0	1010.6	0	0.000	0.0
20110422 01:20	11.1	11.1	11.1	65	4.8	0	0	-100000	0.0	1010.6	0	0.000	0.0
20110422 01:25	11.0	11.0	11.0	64	4.5	2	5	45	0.0	1010.6	0	0.000	0.0
20110422 01:30	10.9	10.9	10.9	65	4.6	2	3	45	0.0	1010.6	0	0.000	0.0
20110422 01:35	10.8	10.8	10.8	65	4.5	0	2	45	0.0	1010.6	0	0.000	0.0
20110422 01:40	10.7	10.7	10.7	66	4.6	0	2	45	0.0	1010.6	0	0.000	0.0
20110422 01:45	10.6	10.6	10.6	66	4.5	5	6	45	0.0	1010.7	0	0.000	0.0
20110422 01:50	10.4	10.4	10.4	68	4.8	5	8	202	0.0	1010.7	0	0.000	0.0
20110422 01:55	10.3	10.3	10.3	69	4.9	3	6	202	0.0	1010.5	0	0.000	0.0
20110422 02:00	10.2	10.2	10.2	70	5.0	2	5	202	0.0	1010.5	0	0.025	0.0
20110422 02:05	10.2	10.2	10.2	70	4.9	2	6	202	0.0	1010.3	0	0.000	0.0
20110422 02:10	10.1	10.1	10.1	71	5.1	2	5	202	0.0	1010.2	0	0.000	0.0
20110422 02:15	10.1	10.1	10.1	71	5.0	0	0	-100000	0.0	1010.3	0	0.000	0.0
20110422 02:20	10.0	10.0	10.0	71	5.0	0	2	202	0.0	1010.3	0	0.000	0.0
20110422 02:25	9.9	9.9	9.9	71	4.9	0	2	202	0.0	1010.3	0	0.000	0.0
20110422 02:30	9.9	9.9	9.9	72	5.1	0	2	202	0.0	1010.2	0	0.000	0.0
20110422 02:40	9.8	9.8	9.8	72	5.0	0	0	-100000	0.0	1010.3	-100000	0.000	0.0
20110422 02:45	9.8	9.8	9.8	72	5.0	0	0	-100000	0.0	1010.2	0	0.000	0.0
20110422 02:50	9.8	9.8	9.8	72	5.0	0	0	-100000	0.0	1010.2	0	0.000	0.0
20110422 02:55	9.7	9.7	9.7	72	4.9	0	0	-100000	0.0	1010.3	0	0.000	0.0
20110422 03:00	9.7	9.7	9.7	73	5.1	0	0	-100000	0.0	1010.3	0	0.025	0.0
20110422 03:05	9.6	9.6	9.6	73	5.0	0	0	-100000	0.0	1010.3	0	0.000	0.0
20110422 03:10	9.6	9.6	9.6	73	5.0	0	2	202	0.0	1010.3	0	0.000	0.0
20110422 03:15	9.5	9.5	9.5	74	5.1	0	2	202	0.0	1010.3	0	0.000	0.0
20110422 03:20	9.4	9.4	9.4	74	5.0	0	2	202	0.0	1010.3	0	0.000	0.0
20110422 03:25	9.3	9.3	9.3	75	5.1	0	3	202	0.0	1010.3	0	0.000	0.0
20110422 03:30	9.3	9.3	9.3	75	5.1	0	2	202	0.0	1010.3	0	0.000	0.0
20110422 03:35	9.1	9.1	9.1	75	4.9	2	5	202	0.0	1010.3	0	0.000	0.0
20110422 03:40	9.0	9.0	9.0	75	4.8	0	5	202	0.0	1010.3	0	0.000	0.0
20110422 03:45	8.9	8.9	8.9	76	4.9	0	2	202	0.0	1010.3	0	0.000	0.0
20110422 03:50	8.9	8.9	8.9	76	4.9	0	3	202	0.0	1010.3	0	0.000	0.0
20110422 03:55	8.8	8.8	8.8	76	4.8	2	5	202	0.0	1010.3	0	0.000	0.0
20110422 04:00	8.8	8.8	8.8	76	4.8	0	5	202	0.0	1010.3	0	0.025	0.0
20110422 04:05	8.8	8.8	8.8	76	4.8	2	5	202	0.0	1010.3	0	0.000	0.0
20110422 04:10	8.7	8.7	8.7	76	4.7	3	5	202	0.0	1010.3	0	0.000	0.0
20110422 04:15	8.7	8.7	8.7	76	4.7	2	5	202	0.0	1010.2	0	0.000	0.0
20110422 04:20	8.7	8.7	8.7	76	4.7	0	2	202	0.0	1010.2	0	0.000	0.0
20110422 04:25	8.7	8.7	8.7	76	4.7	0	5	202	0.0	1010.2	0	0.000	0.0
20110422 04:30	8.7	8.7	8.7	76	4.7	3	5	202	0.0	1010.2	0	0.000	0.0
20110422 04:35	8.6	8.6	8.6	76	4.6	3	6	202	0.0	1010.3	0	0.000	0.0
20110422 04:40	8.6	8.6	8.6	76	4.6	0	3	202	0.0	1010.4	0	0.000	0.0
20110422 04:45	8.5	8.5	8.5	76	4.5	3	6	202	0.0	1010.3	0	0.000	0.0
20110422 04:50	8.4	8.4	8.4	76	4.5	3	6	202	0.0	1010.3	0	0.000	0.0
20110422 04:55	8.4	8.4	8.4	76	4.5	0	2	202	0.0	1010.3	0	0.000	0.0
20110422 05:00	8.4	8.4	8.4	75	4.2	0	2	202	0.0	1010.3	0	0.025	0.0
20110422 05:05	8.4	8.4	8.4	76	4.4	0	0	-100000	0.0	1010.1	0	0.000	0.0
20110422 05:10	8.3	8.3	8.3	75	4.2	0	0	-100000	0.0	1010.1	0	0.000	0.0
20110422 05:15	8.2	8.2	8.2	75	4.1	0	0	-100000	0.0	1010.1	0	0.000	0.0
20110422 05:20	8.1	8.1	8.1	76	4.1	0	0	-100000	0.0	1010.1	0	0.000	0.0
20110422 05:25	8.1	8.1	8.1	76	4.1	0	2	202	0.0	1010.1	0	0.000	0.0
20110422 05:30	7.9	7.9	7.9	76	3.9	0	2	202	0.0	1010.1	0	0.000	0.0
20110422 05:35	7.8	7.8	7.8	77	4.0	0	3	202	0.0	1010.1	0	0.000	0.0
20110422 05:40	7.8	7.8	7.8	77	4.0	0	2	202	0.0	1010.1	0	0.000	0.0
20110422 05:45	7.8	7.8	7.8	77	4.0	0	3	202	0.0	1010.1	0	0.000	0.0
20110422 05:50	7.7	7.7	7.7	77	3.9	0	3	202	0.0	1010.2	0	0.000	0.0
20110422 05:55	7.7	7.7	7.7	77	3.9	0	5	202	0.0	1010.1	0	0.000	0.0
20110422 06:00	7.6	7.6	7.6	77	3.8	0	3	202	0.0	1010.1	0	0.025	0.0
20110422 06:05	7.6	7.6	7.6	78	4.0	0	2	315	0.0	1010.4	0	0.000	0.0
20110422 06:10	7.5	7.5	7.5	78	3.9	2	5	270	0.0	1010.4	0	0.000	0.0
20110422 06:15	7.4	7.4	7.4	78	3.8	3	6	248	0.0	1010.3	0	0.000	0.0
20110422 06:20	7.3	7.3	7.3	78	3.8	2	6	248	0.0	1010.4	6	0.000	0.0
20110422 06:25	7.2	7.2	7.2	78	3.6	2	3	112	0.0	1010.4	9	0.000	0.0
20110422 06:30	7.2	7.2	7.2	79	3.8	2	5	112	0.0	1010.4	12	0.000	0.0
20110422 06:35	7.2	7.2	7.2	79	3.8	0	3	90	0.0	1010.4	14	0.000	0.0
20110422 06:40	7.2	7.2	7.2	79	3.8	0	2	90	0.0	1010.5	17	0.000	0.0
20110422 06:45	7.2	7.2	7.2	79	3.8	2	5	90	0.0	1010.4	20	0.000	0.0
20110422 06:50	7.2	7.2	7.2	79	3.8	2	5	90	0.0	1010.4	23	0.000	0.0
20110422 06:55	7.3	7.3	7.3	79	3.9	0	2	90	0.0	1010.5	25	0.000	0.0
20110422 07:00	7.3	7.3	7.3	79	3.9	0	2	315	0.0	1010.5	27	0.000	0.0
20110422 07:05	7.4	7.4	7.4	79	4.0	0	0	-100000	0.0	1010.7	30	0.000	0.0
20110422 07:10	7.4	7.4	7.4	78	3.8	0	0	-100000	0.0	1010.7	32	0.000	0.0
20110422 07:15	7.4	7.4	7.4	78	3.9	0	0	-100000	0.0	1010.8	34	0.000	0.0
20110422 07:20	7.5	7.5	7.5	79	4.1	0	0	-100000	0.0	1010.7	36	0.000	0.0
20110422 07:25	7.6	7.6	7.6	79	4.1	0	0	-100000	0.0	1010.8	39	0.000	0.0
20110422 07:30	7.7	7.7	7.7	79	4.3	0	2	0	0.0	1010.8	41	0.000	0.0
20110422 07:35	7.8	7.8	7.8	79	4.4	0	0	-100000	0.0	1010.8	119	0.000	0.0
20110422 07:40	8.1	8.1	8.1	79	4.7	0	0	-100000	0.0	1010.9	146	0.000	0.0
20110422 07:45	8.6	8.6	8.6	78	5.0	0	0	-100000	0.0	1010.9	160	0.000	0.0
20110422 07:50	9.1	9.1	9.1	77	5.2	0	2	0	0.0	1010.8	176	0.000	0.0
20110422 07:55	9.6	9.6	9.6	76	5.5	0	0	-100000	0.0	1010.8	192	0.000	0.3
20110422 08:00	9.9	9.9	9.9	75	5.7	0	2	0	0.0	1010.7	206	0.051	0.5
20110422 08:05	10.3	10.3	10.3	73	5.7	0	2	0	0.0	1011.1	219	0.000	0.6
20110422 08:10	10.7	10.7	10.7	71	5.6	0	2	0	0.0	1010.9	233	0.000	0.6
20110422 08:15	11.1	11.1	11.1	70	5.8	0	0	-100000	0.0	1010.9	244	0.000	0.7
20110422 08:20	11.6	11.6	11.6	69	6.1	0	2	0	0.0	1010.8	256	0.000	0.7
20110422 08:25	11.9	11.9	11.9	68	6.2	0	2	0	0.0	1010.8	270	0.000	0.8
20110422 08:30	12.2	12.2	12.2	68	6.5	0	2	0	0.0	1010.8	285	0.000	0.9
20110422 08:35	12.4	12.4	12.4	67	6.5	0	2	0	0.0	1010.8	299	0.000	0.9
20110422 08:40	12.7	12.7	12.7	66	6.5	0	2	0	0.0	1010.6	313	0.000	1.0
20110422 08:45	12.9	12.9	12.9	66	6.7	0	3	0	0.0	1010.6	327	0.000	1.1
20110422 08:50	13.0	13.0	13.0	66	6.8	3	6	135	0.0	1010.5	341	0.000	1.2
20110422 08:55	13.2	13.2	13.2	66	7.0	2	5	180	0.0	1010.5	353	0.000	1.3
20110422 09:00	13.4	13.4	13.4	65	7.0	0	6	180	0.0	1010.5	367	0.152	1.3
20110422 09:05	13.8	13.8	13.8	65	7.3	0	3	292	0.0	1010.4	380	0.000	1.4
20110422 09:10	14.1	14.1	14.1	62	6.9	2	5	248	0.0	1010.5	393	0.000	1.5
20110422 09:15	14.1	14.1	14.1	59	6.2	3	8	248	0.0	1010.5	324	0.000	1.6
20110422 09:20	14.1	14.1	14.1	59	6.2	5	8	225	0.0	1010.5	65	0.000	1.4
20110422 09:25	14.2	14.2	14.2	59	6.3	3	8	225	0.0	1010.5	66	0.000	1.4
20110422 09:30	14.3	14.3	14.3	59	6.4	2	6	225	0.0	1010.4	67	0.000	1.5
20110422 09:35	14.4	14.4	14.4	58	6.3	3	8	225	0.0	1010.4	67	0.000	1.5
20110422 09:40	14.6	14.6	14.6	59	6.6	3	8	225	0.0	1010.4	67	0.000	1.5
20110422 09:45	14.7	14.7	14.7	60	7.0	2	6	225	0.0	1010.3	69	0.000	1.6
20110422 09:50	15.0	15.0	15.0	58	6.8	3	8	225	0.0	1010.2	69	0.000	1.6
20110422 09:55	15.0	15.0	15.0	58	6.8	3	8	202	0.0	1010.2	69	0.000	1.7
20110422 10:00	15.3	15.3	15.3	58	7.1	2	8	225	0.0	1010.2	69	0.102	1.7
20110422 10:05	15.5	15.5	15.5	58	7.3	3	10	248	0.0	1010.2	70	0.000	1.8
20110422 10:10	15.7	15.7	15.7	57	7.2	5	8	248	0.0	1010.1	70	0.000	1.9
20110422 10:15	15.8	15.8	15.8	56	7.1	5	10	225	0.0	1010.2	70	0.000	1.9
20110422 10:20	15.9	15.9	15.9	56	7.1	3	6	248	0.0	1010.2	72	0.000	2.0
20110422 10:25	16.2	16.2	16.2	55	7.1	2	6	225	0.0	1010.2	72	0.000	2.0
20110422 10:30	16.3	16.3	16.3	55	7.2	0	3	225	0.0	1010.2	84	0.000	2.1
20110422 10:35	16.4	16.4	16.4	54	7.1	2	6	225	0.0	1010.0	599	0.000	2.3
20110422 10:40	16.6	16.6	16.6	54	7.2	2	5	225	0.0	1010.0	606	0.000	3.3
20110422 10:45	16.7	16.7	16.7	53	7.1	2	5	315	0.0	1010.0	619	0.000	3.6
20110422 10:50	17.0	17.0	17.0	55	7.9	0	5	0	0.0	1009.9	627	0.000	3.7
20110422 10:55	17.4	17.4	17.4	54	8.0	2	5	0	0.0	1010.0	544	0.000	3.8
20110422 11:00	17.8	17.8	17.8	51	7.5	2	6	112	0.0	1009.8	646	0.203	3.9
20110422 11:05	18.0	18.0	18.0	50	7.4	2	5	112	0.0	1009.8	657	0.000	4.0
20110422 11:10	18.2	18.2	18.2	50	7.6	2	5	112	0.0	1009.8	666	0.000	4.1
20110422 11:15	18.3	18.3	18.3	49	7.4	2	8	68	0.0	1009.8	675	0.000	4.2
20110422 11:20	18.3	18.3	18.3	51	8.0	3	8	68	0.0	1009.7	685	0.000	4.3
20110422 11:25	18.7	18.7	18.7	49	7.7	3	8	158	0.0	1009.6	692	0.000	4.4
20110422 11:30	18.9	18.9	18.9	49	8.0	2	8	112	0.0	1009.6	698	0.000	4.5
20110422 11:35	19.2	19.2	19.2	50	8.5	2	5	112	0.0	1009.5	708	0.000	4.6
20110422 11:40	19.3	19.3	19.3	49	8.3	5	10	22	0.0	1009.5	713	0.000	4.7
20110422 11:45	19.3	19.3	19.3	48	8.0	0	5	22	0.0	1009.5	718	0.000	4.8
20110422 11:50	19.6	19.6	19.6	47	8.0	2	6	45	0.0	1009.4	727	0.000	4.9
20110422 11:55	19.7	19.7	19.7	48	8.4	3	6	45	0.0	1009.5	733	0.000	5.0
20110422 12:00	19.9	19.9	19.9	47	8.3	2	6	45	0.0	1009.3	739	0.406	5.1
20110422 12:05	19.9	19.9	19.9	48	8.6	2	6	45	0.0	1009.4	745	0.000	5.2
20110422 12:10	20.0	20.0	20.0	47	8.3	6	11	45	0.0	1009.4	751	0.000	5.3
20110422 12:15	20.2	20.2	20.2	47	8.5	5	11	45	0.0	1009.3	756	0.000	5.4
20110422 12:20	20.4	20.4	20.4	48	9.1	5	11	90	0.0	1009.1	760	0.000	5.4
20110422 12:25	20.8	20.8	20.8	45	8.4	3	14	135	0.0	1009.1	765	0.000	5.5
20110422 12:30	20.8	20.8	20.8	44	8.1	2	6	45	0.0	1009.0	766	0.000	5.5
20110422 12:35	20.9	20.9	20.9	43	7.9	3	8	68	0.0	1008.9	767	0.000	5.6
20110422 12:40	21.1	21.1	21.1	43	8.0	3	8	90	0.0	1008.9	772	0.000	5.6
20110422 12:45	21.3	21.3	21.3	42	7.8	6	14	112	0.0	1008.9	773	0.000	5.6
20110422 12:50	21.2	21.2	21.2	46	9.1	6	16	68	0.0	1008.8	778	0.000	5.7
20110422 12:55	21.3	21.3	21.3	45	8.9	8	16	45	0.0	1008.8	775	0.000	5.7
20110422 13:00	21.3	21.3	21.3	45	8.9	8	13	45	0.0	1008.7	780	0.483	5.7
20110422 13:05	21.7	21.7	21.7	45	9.2	5	11	135	0.0	1008.8	787	0.000	5.8
20110422 13:10	21.9	21.9	21.9	44	9.1	6	19	68	0.0	1008.7	785	0.000	5.8
20110422 13:15	21.9	21.9	21.9	44	9.1	8	16	45	0.0	1008.6	783	0.000	5.8
20110422 13:20	22.0	22.0	22.0	44	9.2	6	14	68	0.0	1008.4	791	0.000	5.8
20110422 13:25	22.1	22.1	22.1	43	8.9	6	14	158	0.0	1008.5	790	0.000	5.8
20110422 13:30	22.2	22.2	22.2	42	8.7	8	18	68	0.0	1008.4	792	0.000	5.8
20110422 13:35	22.3	22.3	22.3	42	8.8	8	16	68	0.0	1008.3	790	0.000	5.8
20110422 13:40	22.4	22.4	22.4	42	8.9	5	11	68	0.0	1008.3	782	0.000	5.7
20110422 13:45	22.4	22.4	22.4	43	9.2	8	18	112	0.0	1008.2	772	0.000	5.6
20110422 13:50	22.5	22.5	22.5	40	8.2	10	19	90	0.0	1008.3	776	0.000	5.6
20110422 13:55	22.6	22.6	22.6	43	9.4	6	10	90	0.0	1008.1	779	0.000	5.6
20110422 14:00	22.8	22.8	22.8	40	8.5	6	16	90	0.0	1008.1	779	0.533	5.5
20110422 14:05	22.8	22.8	22.8	43	9.6	10	23	90	0.0	1008.0	765	0.000	5.4
20110422 14:10	22.6	22.6	22.6	43	9.4	8	18	45	0.0	1008.0	761	0.000	5.3
20110422 14:15	22.4	22.4	22.4	44	9.6	10	19	45	0.0	1008.0	753	0.000	5.2
20110422 14:20	22.8	22.8	22.8	41	8.8	10	18	90	0.0	1008.0	754	0.000	5.2
20110422 14:25	22.9	22.9	22.9	41	8.9	6	19	135	0.0	1007.9	746	0.000	5.1
20110422 14:30	23.1	23.1	23.1	41	9.1	6	19	135	0.0	1007.8	730	0.000	4.9
20110422 14:35	23.3	23.3	23.3	40	8.9	8	19	90	0.0	1007.8	739	0.000	4.9
20110422 14:40	23.1	23.1	23.1	40	8.8	10	19	68	0.0	1007.8	750	0.000	5.0
20110422 14:45	23.2	23.2	23.2	38	8.1	8	19	68	0.0	1007.8	731	0.000	4.8
20110422 14:50	23.4	23.4	23.4	33	6.2	6	19	112	0.0	1007.7	716	0.000	4.6
20110422 14:55	23.7	23.7	23.7	32	6.0	10	21	90	0.0	1007.7	718	0.000	4.6
20110422 15:00	23.8	23.8	23.8	31	5.7	10	18	112	0.0	1007.6	718	0.533	4.6
20110422 15:05	23.8	23.8	23.8	30	5.2	11	21	90	0.0	1007.7	708	0.000	4.5
20110422 15:10	23.8	23.8	23.8	32	6.1	10	24	68	0.0	1007.7	699	0.000	4.3
20110422 15:15	23.9	23.9	25.0	30	5.2	11	21	90	0.0	1007.6	690	0.000	4.2
20110422 15:20	23.8	23.8	23.8	31	5.7	11	19	90	0.0	1007.5	689	0.000	3.8
20110422 15:25	23.9	23.9	24.9	29	4.8	11	23	112	0.0	1007.4	673	0.000	4.0
20110422 15:30	24.1	24.1	25.1	31	5.9	11	27	90	0.0	1007.3	664	0.000	3.9
20110422 15:35	24.3	24.3	25.0	27	4.1	10	19	112	0.0	1007.2	658	0.000	3.6
20110422 15:40	24.3	24.3	25.1	29	5.1	10	18	90	0.0	1007.1	651	0.000	3.7
20110422 15:45	24.3	24.3	25.0	28	4.6	10	21	135	0.0	1007.0	642	0.000	3.6
20110422 15:50	24.3	24.3	25.1	29	5.1	8	19	90	0.0	1007.0	636	0.000	3.4
20110422 15:55	24.3	24.3	25.0	27	4.1	10	19	68	0.0	1006.9	625	0.000	3.3
20110422 16:00	24.3	24.3	25.0	27	4.1	10	23	90	0.0	1006.9	612	0.533	3.1
20110422 16:05	24.4	24.4	25.1	29	5.2	11	19	112	0.0	1007.0	605	0.000	2.8
20110422 16:10	24.4	24.4	25.1	28	4.7	6	16	90	0.0	1006.9	591	0.000	3.0
20110422 16:15	24.4	24.4	25.1	28	4.7	8	21	90	0.0	1006.9	580	0.000	2.7
20110422 16:20	24.5	24.5	25.1	29	5.3	11	23	112	0.0	1006.9	567	0.000	2.7
20110422 16:25	24.7	24.7	25.2	30	5.9	10	18	112	0.0	1006.8	557	0.000	2.6
20110422 16:30	24.7	24.7	25.2	28	5.0	6	18	112	0.0	1006.7	545	0.000	2.4
20110422 16:35	24.6	24.6	25.1	28	4.8	6	14	90	0.0	1006.8	520	0.000	2.3
20110422 16:40	24.6	24.6	25.2	29	5.4	6	16	112	0.0	1006.7	519	0.000	2.2
20110422 16:45	24.5	24.5	25.1	27	4.3	8	16	90	0.0	1006.7	509	0.000	2.2
20110422 16:50	24.6	24.6	25.1	27	4.3	8	18	90	0.0	1006.6	495	0.000	2.1
20110422 16:55	24.3	24.3	25.0	27	4.1	10	18	68	0.0	1006.7	475	0.000	1.9
20110422 17:00	24.3	24.3	25.0	27	4.1	8	19	68	0.0	1006.7	465	0.432	1.9
20110422 17:05	24.4	24.4	25.1	28	4.7	6	10	90	0.0	1006.5	453	0.000	1.7
20110422 17:10	24.5	24.5	25.1	28	4.8	8	14	90	0.0	1006.6	439	0.000	1.6
20110422 17:15	24.3	24.3	25.0	28	4.6	6	16	90	0.0	1006.6	426	0.000	1.6
20110422 17:20	24.3	24.3	25.1	29	5.1	11	21	90	0.0	1006.5	412	0.000	1.5
20110422 17:25	24.2	24.2	25.1	30	5.5	11	21	68	0.0	1006.5	396	0.000	1.4
20110422 17:30	24.0	24.0	25.0	30	5.3	11	21	90	0.0	1006.5	381	0.000	1.3
20110422 17:35	24.0	24.0	25.0	30	5.3	11	21	90	0.0	1006.5	367	0.000	1.2
20110422 17:40	24.1	24.1	25.0	30	5.4	8	23	90	0.0	1006.5	353	0.000	1.1
20110422 17:45	23.8	23.8	23.8	29	4.7	11	21	68	0.0	1006.4	342	0.000	1.0
20110422 17:50	23.7	23.7	23.7	29	4.6	13	27	68	0.0	1006.4	327	0.000	1.0
20110422 17:55	23.6	23.6	23.6	30	5.0	8	23	68	0.0	1006.4	314	0.000	0.9
20110422 18:00	23.6	23.6	23.6	30	5.0	13	24	68	0.0	1006.4	302	0.356	0.8
20110422 18:05	23.4	23.4	23.4	30	4.9	11	24	90	0.0	1006.5	288	0.000	0.8
20110422 18:10	23.4	23.4	23.4	31	5.3	10	18	90	0.0	1006.6	273	0.000	0.7
20110422 18:15	23.3	23.3	23.3	30	4.8	8	18	90	0.0	1006.5	259	0.000	0.7
20110422 18:20	23.3	23.3	23.3	31	5.2	6	14	90	0.0	1006.5	245	0.000	0.6
20110422 18:25	23.2	23.2	23.2	31	5.1	6	16	68	0.0	1006.6	231	0.000	0.5
20110422 18:30	23.1	23.1	23.1	31	5.0	10	19	68	0.0	1006.6	215	0.000	0.5
20110422 18:35	23.0	23.0	23.0	31	5.0	6	13	68	0.0	1006.6	198	0.000	0.3
20110422 18:40	22.8	22.8	22.8	32	5.3	6	16	90	0.0	1006.6	180	0.000	0.0
20110422 18:45	22.8	22.8	22.8	32	5.2	6	11	68	0.0	1006.6	164	0.000	0.0
20110422 18:50	22.6	22.6	22.6	33	5.5	5	11	68	0.0	1006.5	130	0.000	0.0
20110422 18:55	22.4	22.4	22.4	33	5.3	6	16	68	0.0	1006.7	49	0.000	0.0
20110422 19:00	22.2	22.2	22.2	33	5.2	6	14	68	0.0	1006.6	47	0.203	0.0
20110422 19:05	22.1	22.1	22.1	33	5.0	6	11	68	0.0	1006.3	45	0.000	0.0
20110422 19:10	21.9	21.9	21.9	34	5.3	5	11	68	0.0	1006.3	43	0.000	0.0
20110422 19:15	21.8	21.8	21.8	34	5.2	6	14	68	0.0	1006.4	40	0.000	0.0
20110422 19:20	21.6	21.6	21.6	34	5.1	5	11	68	0.0	1006.4	38	0.000	0.0
20110422 19:25	21.4	21.4	21.4	35	5.3	5	10	68	0.0	1006.5	34	0.000	0.0
20110422 19:30	21.2	21.2	21.2	35	5.1	5	10	68	0.0	1006.5	32	0.000	0.0
20110422 19:35	21.0	21.0	21.0	36	5.4	5	10	68	0.0	1006.6	28	0.000	0.0
20110422 19:40	20.7	20.7	20.7	37	5.5	5	8	68	0.0	1006.7	25	0.000	0.0
20110422 19:45	20.4	20.4	20.4	38	5.6	5	10	68	0.0	1006.7	21	0.000	0.0
20110422 19:50	18.8	18.8	18.8	51	8.4	5	8	68	0.0	1006.8	18	0.000	0.0
20110422 19:55	16.8	16.8	16.8	57	8.2	2	6	90	0.0	1007.0	14	0.000	0.0
20110422 20:00	16.0	16.0	16.0	56	7.2	2	6	68	0.0	1007.2	11	0.076	0.0
20110422 20:05	15.7	15.7	15.7	59	7.7	2	6	68	0.0	1006.8	8	0.000	0.0
20110422 20:10	15.5	15.5	15.5	59	7.5	2	3	68	0.0	1006.8	5	0.000	0.0
20110422 20:15	15.3	15.3	15.3	60	7.6	2	5	68	0.0	1006.9	0	0.000	0.0
20110422 20:20	15.3	15.3	15.3	58	7.1	2	5	68	0.0	1006.9	0	0.000	0.0
20110422 20:25	15.6	15.6	15.6	56	6.9	2	5	90	0.0	1007.0	0	0.000	0.0
20110422 20:30	15.9	15.9	15.9	53	6.4	0	3	90	0.0	1007.0	-100000	0.000	0.0
20110422 20:35	16.2	16.2	16.2	50	5.8	2	5	90	0.0	1007.0	0	0.000	0.0
20110422 20:40	16.7	16.7	16.7	47	5.3	2	6	90	0.0	1006.9	0	0.000	0.0
20110422 20:45	17.0	17.0	17.0	46	5.3	3	6	90	0.0	1007.0	0	0.000	0.0
20110422 20:50	17.3	17.3	17.3	45	5.2	3	6	68	0.0	1007.0	0	0.000	0.0
20110422 20:55	17.3	17.3	17.3	45	5.3	3	6	90	0.0	1007.1	0	0.000	0.0
20110422 21:00	17.4	17.4	17.4	45	5.3	2	6	90	0.0	1007.0	0	0.025	0.0
20110422 21:05	17.3	17.3	17.3	44	5.0	2	6	90	0.0	1006.9	0	0.000	0.0
20110422 21:10	17.3	17.3	17.3	44	5.0	2	8	90	0.0	1006.9	0	0.000	0.0
20110422 21:15	17.3	17.3	17.3	44	4.9	3	6	68	0.0	1006.9	0	0.000	0.0
20110422 21:20	17.2	17.2	17.2	44	4.9	2	6	90	0.0	1006.9	0	0.000	0.0
20110422 21:25	17.1	17.1	17.1	44	4.8	3	6	90	0.0	1007.0	0	0.000	0.0
20110422 21:30	17.1	17.1	17.1	44	4.7	2	3	90	0.0	1006.9	0	0.000	0.0
20110422 21:35	17.0	17.0	17.0	44	4.7	2	3	90	0.0	1007.0	0	0.000	0.0
20110422 21:40	16.8	16.8	16.8	45	4.8	2	3	90	0.0	1006.9	0	0.000	0.0
20110422 21:45	16.6	16.6	16.6	46	4.9	0	2	90	0.0	1006.9	0	0.000	0.0
20110422 21:50	16.3	16.3	16.3	47	4.9	0	2	90	0.0	1007.1	0	0.000	0.0
20110422 21:55	16.1	16.1	16.1	47	4.7	0	3	90	0.0	1007.1	0	0.000	0.0
20110422 22:00	15.8	15.8	15.8	48	4.8	0	2	90	0.0	1007.1	0	0.051	0.0
20110422 22:05	15.7	15.7	15.7	49	5.0	0	2	90	0.0	1006.8	0	0.000	0.0
20110422 22:10	15.6	15.6	15.6	50	5.2	0	2	90	0.0	1006.8	0	0.000	0.0
20110422 22:15	15.4	15.4	15.4	51	5.3	0	0	-100000	0.0	1006.8	0	0.000	0.0
20110422 22:20	15.2	15.2	15.2	51	5.1	0	0	-100000	0.0	1006.8	0	0.000	0.0
20110422 22:25	15.0	15.0	15.0	52	5.2	0	2	90	0.0	1007.0	0	0.000	0.0
20110422 22:30	15.0	15.0	15.0	52	5.2	0	2	90	0.0	1007.0	0	0.000	0.0
20110422 22:35	14.7	14.7	14.7	54	5.5	0	2	90	0.0	1006.9	0	0.000	0.0
20110422 22:40	14.6	14.6	14.6	54	5.4	0	0	-100000	0.0	1006.9	0	0.000	0.0
20110422 22:45	14.4	14.4	14.4	54	5.2	0	2	90	0.0	1006.9	0	0.000	0.0
20110422 22:50	14.3	14.3	14.3	54	5.1	0	2	90	0.0	1006.9	0	0.000	0.0
20110422 22:55	14.2	14.2	14.2	56	5.6	0	0	-100000	0.0	1006.9	0	0.000	0.0
20110422 23:00	14.0	14.0	14.0	55	5.1	0	3	68	0.0	1007.1	0	0.051	0.0
20110422 23:05	13.5	13.5	13.5	56	4.9	2	5	68	0.0	1006.9	0	0.000	0.0
20110422 23:10	13.1	13.1	13.1	57	4.8	2	5	22	0.0	1006.9	0	0.000	0.0
20110422 23:15	12.8	12.8	12.8	58	4.8	0	2	22	0.0	1007.1	0	0.000	0.0
20110422 23:20	12.6	12.6	12.6	59	4.8	0	0	-100000	0.0	1007.1	0	0.000	0.0
20110422 23:25	12.6	12.6	12.6	60	5.0	0	5	22	0.0	1007.2	0	0.000	0.0
20110422 23:30	12.5	12.5	12.5	58	4.5	5	8	22	0.0	1007.3	0	0.000	0.0
20110422 23:35	12.7	12.7	12.7	58	4.6	2	3	22	0.0	1007.2	0	0.000	0.0
20110422 23:40	12.8	12.8	12.8	57	4.5	0	2	22	0.0	1007.1	0	0.000	0.0
20110422 23:45	12.9	12.9	12.9	57	4.6	0	5	45	0.0	1007.1	0	0.000	0.0
20110422 23:50	12.8	12.8	12.8	58	4.8	0	2	45	0.0	1007.1	0	0.000	0.0
20110422 23:55	12.8	12.8	12.8	58	4.7	0	2	45	0.0	1007.1	0	0.000	0.0



Please note the license to use and transfer of this data:
http://creativecommons.org/licenses/by-nc-sa/3.0/deed.en

Bitte beachten sie die Lizenz zur Verwertung und Weitergabe der Daten:
http://creativecommons.org/licenses/by-nc-sa/3.0/deed.de

zurück zur Übersicht der Archivdaten (Monats und Tagesdaten)

Cookies helfen bei der Bereitstellung von Inhalten. Durch die Nutzung dieser Seiten erklärst du dich damit einverstanden, dass Cookies auf deinem Rechner gespeichert werden. Weitere Information